createdAt,value
2022-12-11T00:00:56.843Z,74.97
2022-12-11T00:03:43.380Z,64.03
2022-12-11T00:06:14.914Z,65.68
2022-12-11T00:08:43.050Z,68.32
2022-12-11T00:11:13.527Z,72.72
2022-12-11T00:13:41.491Z,63.67
2022-12-11T00:16:09.782Z,67.88
2022-12-11T00:18:38.037Z,73.28
2022-12-11T00:21:08.675Z,67.30
2022-12-11T00:23:37.083Z,67.22
2022-12-11T00:26:14.045Z,60.50
2022-12-11T00:28:42.728Z,59.95
2022-12-11T00:31:16.046Z,69.05
2022-12-11T00:33:45.279Z,62.92
2022-12-11T00:36:15.141Z,59.20
2022-12-11T00:38:43.740Z,63.17
2022-12-11T00:41:12.602Z,62.13
2022-12-11T00:43:40.860Z,58.38
2022-12-11T00:46:08.718Z,54.08
2022-12-11T00:48:36.807Z,51.92
2022-12-11T00:51:04.925Z,62.78
2022-12-11T00:53:33.415Z,56.08
2022-12-11T00:56:01.321Z,61.55
2022-12-11T00:58:29.333Z,61.33
2022-12-11T01:01:17.207Z,59.13
2022-12-11T01:03:45.674Z,69.65
2022-12-11T01:06:18.451Z,69.05
2022-12-11T01:08:46.855Z,70.90
2022-12-11T01:11:16.736Z,76.90
2022-12-11T01:13:44.773Z,82.70
2022-12-11T01:16:16.017Z,76.60
2022-12-11T01:18:44.836Z,83.65
2022-12-11T01:21:13.945Z,72.85
2022-12-11T01:23:42.229Z,77.07
2022-12-11T01:26:12.697Z,69.75
2022-12-11T01:28:42.055Z,81.53
2022-12-11T01:31:14.617Z,70.47
2022-12-11T01:33:42.980Z,65.10
2022-12-11T01:36:16.056Z,72.63
2022-12-11T01:38:44.870Z,67.07
2022-12-11T01:41:13.124Z,71.35
2022-12-11T01:43:57.144Z,70.68
2022-12-11T01:46:25.380Z,76.35
2022-12-11T01:48:54.030Z,83.40
2022-12-11T01:51:22.635Z,87.85
2022-12-11T01:53:59.199Z,75.13
2022-12-11T01:56:27.577Z,73.07
2022-12-11T01:59:00.317Z,76.88
2022-12-11T02:01:57.364Z,77.22
2022-12-11T02:04:25.974Z,69.35
2022-12-11T02:06:54.609Z,78.90
2022-12-11T02:09:27.164Z,73.00
2022-12-11T02:12:11.996Z,70.00
2022-12-11T02:15:02.923Z,68.00
2022-12-11T02:17:46.777Z,67.30
2022-12-11T02:20:54.298Z,56.25
2022-12-11T02:23:54.637Z,64.35
2022-12-11T02:26:38.081Z,58.22
2022-12-11T02:29:37.797Z,64.35
2022-12-11T02:32:16.474Z,67.40
2022-12-11T02:34:55.519Z,64.05
2022-12-11T02:37:28.294Z,54.72
2022-12-11T02:39:57.603Z,64.53
2022-12-11T02:42:30.699Z,55.30
2022-12-11T02:45:01.150Z,57.30
2022-12-11T02:47:32.130Z,65.43
2022-12-11T02:50:02.488Z,66.40
2022-12-11T02:52:32.639Z,70.90
2022-12-11T02:55:03.113Z,69.38
2022-12-11T02:57:44.518Z,71.00
2022-12-11T03:00:13.084Z,64.80
2022-12-11T03:02:42.338Z,66.68
2022-12-11T03:05:13.130Z,57.83
2022-12-11T03:07:43.830Z,57.83
2022-12-11T03:10:15.495Z,54.90
2022-12-11T03:12:53.066Z,60.05
2022-12-11T03:15:30.320Z,57.88
2022-12-11T03:18:41.364Z,58.92
2022-12-11T03:21:19.380Z,59.25
2022-12-11T03:24:08.667Z,55.03
2022-12-11T03:26:56.674Z,58.80
2022-12-11T03:29:35.512Z,58.85
2022-12-11T03:32:19.963Z,53.63
2022-12-11T03:35:08.756Z,59.47
2022-12-11T03:37:41.098Z,63.30
2022-12-11T03:40:14.556Z,65.40
2022-12-11T03:42:45.056Z,56.05
2022-12-11T03:45:15.260Z,57.53
2022-12-11T03:47:45.514Z,63.40
2022-12-11T03:50:17.306Z,64.13
2022-12-11T03:52:46.713Z,63.92
2022-12-11T03:55:17.856Z,69.45
2022-12-11T03:57:45.858Z,64.75
2022-12-11T04:00:17.079Z,62.30
2022-12-11T04:02:45.241Z,60.17
2022-12-11T04:05:13.731Z,60.75
2022-12-11T04:07:41.813Z,59.95
2022-12-11T04:10:10.039Z,65.90
2022-12-11T04:12:37.822Z,68.15
2022-12-11T04:15:06.189Z,67.40
2022-12-11T04:17:55.290Z,68.10
2022-12-11T04:20:41.822Z,71.43
2022-12-11T04:23:36.508Z,62.47
2022-12-11T04:26:10.154Z,64.80
2022-12-11T04:28:38.180Z,72.95
2022-12-11T04:31:06.464Z,64.10
2022-12-11T04:33:34.271Z,71.70
2022-12-11T04:36:02.231Z,64.88
2022-12-11T04:38:29.983Z,59.10
2022-12-11T04:41:17.312Z,62.25
2022-12-11T04:43:45.511Z,63.42
2022-12-11T04:46:16.554Z,65.28
2022-12-11T04:48:44.985Z,63.75
2022-12-11T04:51:13.311Z,54.35
2022-12-11T04:53:41.806Z,57.20
2022-12-11T04:56:12.245Z,64.22
2022-12-11T04:58:41.866Z,58.33
2022-12-11T05:01:18.147Z,57.60
2022-12-11T05:03:46.386Z,63.30
2022-12-11T05:06:15.066Z,56.28
2022-12-11T05:08:45.196Z,58.55
2022-12-11T05:11:15.480Z,57.15
2022-12-11T05:13:44.011Z,56.75
2022-12-11T05:16:15.043Z,51.00
2022-12-11T05:18:43.226Z,53.05
2022-12-11T05:21:13.618Z,53.95
2022-12-11T05:23:42.251Z,51.83
2022-12-11T05:26:20.040Z,55.97
2022-12-11T05:28:51.367Z,48.78
2022-12-11T05:31:23.123Z,58.45
2022-12-11T05:33:52.018Z,54.10
2022-12-11T05:36:29.966Z,49.05
2022-12-11T05:38:59.133Z,54.72
2022-12-11T05:41:28.966Z,54.80
2022-12-11T05:43:56.841Z,46.55
2022-12-11T05:46:30.068Z,51.35
2022-12-11T05:49:01.544Z,32.28
2022-12-11T05:51:30.525Z,44.88
2022-12-11T05:53:58.666Z,49.85
2022-12-11T05:56:30.155Z,47.05
2022-12-11T05:58:58.786Z,46.00
2022-12-11T06:01:30.758Z,50.65
2022-12-11T06:03:59.436Z,45.97
2022-12-11T06:06:28.179Z,47.25
2022-12-11T06:08:57.991Z,42.00
2022-12-11T06:11:29.897Z,42.45
2022-12-11T06:13:58.220Z,43.20
2022-12-11T06:16:26.221Z,45.70
2022-12-11T06:18:57.999Z,46.38
2022-12-11T06:21:30.095Z,47.72
2022-12-11T06:24:00.913Z,45.92
2022-12-11T06:26:29.595Z,42.55
2022-12-11T06:28:57.335Z,42.70
2022-12-11T06:31:25.349Z,48.03
2022-12-11T06:33:53.056Z,40.75
2022-12-11T06:36:22.657Z,45.75
2022-12-11T06:38:50.518Z,44.10
2022-12-11T06:41:18.700Z,43.22
2022-12-11T06:43:46.608Z,42.53
2022-12-11T06:46:18.257Z,43.13
2022-12-11T06:48:47.257Z,43.28
2022-12-11T06:51:18.366Z,41.70
2022-12-11T06:53:51.147Z,41.00
2022-12-11T06:56:19.220Z,38.60
2022-12-11T06:58:47.452Z,39.33
2022-12-11T07:01:21.881Z,38.55
2022-12-11T07:03:52.281Z,38.60
2022-12-11T07:06:20.277Z,40.63
2022-12-11T07:08:48.192Z,38.00
2022-12-11T07:11:17.858Z,39.67
2022-12-11T07:13:46.284Z,40.42
2022-12-11T07:16:15.890Z,40.85
2022-12-11T07:18:49.252Z,37.05
2022-12-11T07:23:45.313Z,35.60
2022-12-11T07:26:17.165Z,37.10
2022-12-11T07:28:45.499Z,38.00
2022-12-11T07:31:16.202Z,37.13
2022-12-11T07:33:44.284Z,35.08
2022-12-11T07:36:14.533Z,33.97
2022-12-11T07:38:42.598Z,33.38
2022-12-11T07:41:13.147Z,29.45
2022-12-11T07:43:41.483Z,35.50
2022-12-11T07:46:19.716Z,35.30
2022-12-11T07:48:48.788Z,38.15
2022-12-11T07:51:25.056Z,39.33
2022-12-11T07:53:55.608Z,32.38
2022-12-11T07:56:24.148Z,34.80
2022-12-11T07:58:52.141Z,36.85
2022-12-11T08:01:26.097Z,32.65
2022-12-11T08:03:55.050Z,39.63
2022-12-11T08:06:29.989Z,37.30
2022-12-11T08:08:59.930Z,32.28
2022-12-11T08:11:28.758Z,33.10
2022-12-11T08:13:59.287Z,35.55
2022-12-11T08:16:28.260Z,33.13
2022-12-11T08:18:56.057Z,32.53
2022-12-11T08:21:27.587Z,34.78
2022-12-11T08:23:56.132Z,32.28
2022-12-11T08:26:28.534Z,37.35
2022-12-11T08:28:57.075Z,39.55
2022-12-11T08:31:25.662Z,39.05
2022-12-11T08:33:55.127Z,33.15
2022-12-11T08:36:24.525Z,37.78
2022-12-11T08:38:53.828Z,37.05
2022-12-11T08:41:31.189Z,36.78
2022-12-11T08:44:00.538Z,42.13
2022-12-11T08:46:31.969Z,38.33
2022-12-11T08:49:00.120Z,39.38
2022-12-11T08:51:30.348Z,38.72
2022-12-11T08:54:00.880Z,35.38
2022-12-11T08:56:30.343Z,36.92
2022-12-11T08:59:01.213Z,34.22
2022-12-11T09:01:29.645Z,36.65
2022-12-11T09:03:58.320Z,36.65
2022-12-11T09:06:28.197Z,37.58
2022-12-11T09:08:58.423Z,34.30
2022-12-11T09:11:30.326Z,35.88
2022-12-11T09:14:03.538Z,36.38
2022-12-11T09:16:37.855Z,37.42
2022-12-11T09:19:06.615Z,40.35
2022-12-11T09:21:34.831Z,37.92
2022-12-11T09:24:02.942Z,40.97
2022-12-11T09:26:31.247Z,40.60
2022-12-11T09:28:59.438Z,36.03
2022-12-11T09:31:33.737Z,37.92
2022-12-11T09:34:05.056Z,40.55
2022-12-11T09:36:33.661Z,38.53
2022-12-11T09:39:03.892Z,38.00
2022-12-11T09:41:40.433Z,38.22
2022-12-11T09:44:23.938Z,42.25
2022-12-11T09:49:42.939Z,41.03
2022-12-11T09:52:40.003Z,45.70
2022-12-11T09:55:25.663Z,38.20
2022-12-11T09:58:14.568Z,43.33
2022-12-11T10:00:47.463Z,45.38
2022-12-11T10:03:48.604Z,40.47
2022-12-11T10:06:25.506Z,37.38
2022-12-11T10:09:05.587Z,36.90
2022-12-11T10:11:59.094Z,34.92
2022-12-11T10:14:37.036Z,35.05
2022-12-11T10:17:30.938Z,34.30
2022-12-11T10:22:33.976Z,36.53
2022-12-11T10:25:13.022Z,33.03
2022-12-11T10:27:41.612Z,37.72
2022-12-11T10:30:18.695Z,38.30
2022-12-11T10:33:07.448Z,34.47
2022-12-11T10:35:55.021Z,39.60
2022-12-11T10:38:33.069Z,38.83
2022-12-11T10:41:02.390Z,33.30
2022-12-11T10:43:35.876Z,30.58
2022-12-11T10:46:05.102Z,35.03
2022-12-11T10:48:33.376Z,36.20
2022-12-11T10:51:07.225Z,29.98
2022-12-11T10:56:03.483Z,33.33
2022-12-11T10:58:34.285Z,37.38
2022-12-11T11:01:15.123Z,36.95
2022-12-11T11:04:15.483Z,35.63
2022-12-11T11:06:43.971Z,39.08
2022-12-11T11:09:32.113Z,36.80
2022-12-11T11:12:03.117Z,35.95
2022-12-11T11:14:35.278Z,32.95
2022-12-11T11:17:03.277Z,30.85
2022-12-11T11:19:35.248Z,31.98
2022-12-11T11:22:08.658Z,28.88
2022-12-11T11:24:39.605Z,30.35
2022-12-11T11:27:25.101Z,37.30
2022-12-11T11:30:02.452Z,35.20
2022-12-11T11:32:39.901Z,29.58
2022-12-11T11:35:13.941Z,30.75
2022-12-11T11:37:53.424Z,35.22
2022-12-11T11:40:30.469Z,33.70
2022-12-11T11:43:29.507Z,31.10
2022-12-11T11:46:04.521Z,28.08
2022-12-11T11:49:06.320Z,30.70
2022-12-11T11:51:45.273Z,27.30
2022-12-11T11:54:39.359Z,30.80
2022-12-11T11:57:32.347Z,30.77
2022-12-11T12:00:10.835Z,28.35
2022-12-11T12:02:42.568Z,29.95
2022-12-11T12:05:14.013Z,30.52
2022-12-11T12:07:44.616Z,28.73
2022-12-11T12:10:26.551Z,31.85
2022-12-11T12:13:48.595Z,26.90
2022-12-11T12:16:52.625Z,30.00
2022-12-11T12:19:36.088Z,29.33
2022-12-11T12:22:19.716Z,30.73
2022-12-11T12:25:22.047Z,22.95
2022-12-11T12:28:12.920Z,28.73
2022-12-11T12:31:16.087Z,30.88
2022-12-11T12:34:37.344Z,32.30
2022-12-11T12:37:15.177Z,28.65
2022-12-11T12:40:19.911Z,28.63
2022-12-11T12:45:38.213Z,29.65
2022-12-11T12:48:07.677Z,31.73
2022-12-11T12:50:43.610Z,28.45
2022-12-11T12:53:19.652Z,31.35
2022-12-11T12:55:49.653Z,31.63
2022-12-11T12:58:29.587Z,32.78
2022-12-11T13:01:30.298Z,30.42
2022-12-11T13:04:03.096Z,25.90
2022-12-11T13:06:38.722Z,31.77
2022-12-11T13:09:18.675Z,27.60
2022-12-11T13:11:53.531Z,26.52
2022-12-11T13:14:21.291Z,32.80
2022-12-11T13:17:04.556Z,23.40
2022-12-11T13:19:39.076Z,28.30
2022-12-11T13:22:13.748Z,30.73
2022-12-11T13:24:59.667Z,27.88
2022-12-11T13:27:41.753Z,30.90
2022-12-11T13:30:15.607Z,32.92
2022-12-11T13:32:53.627Z,25.33
2022-12-11T13:35:21.456Z,28.13
2022-12-11T13:37:52.188Z,30.20
2022-12-11T13:40:24.103Z,33.80
2022-12-11T13:43:29.990Z,30.42
2022-12-11T13:46:04.203Z,31.50
2022-12-11T13:48:43.700Z,31.20
2022-12-11T13:51:21.948Z,33.35
2022-12-11T13:54:01.712Z,36.80
2022-12-11T13:56:29.439Z,37.20
2022-12-11T13:58:57.427Z,34.75
2022-12-11T14:01:29.144Z,36.05
2022-12-11T14:04:04.809Z,38.22
2022-12-11T14:06:34.780Z,37.60
2022-12-11T14:09:05.498Z,38.30
2022-12-11T14:11:42.311Z,38.85
2022-12-11T14:14:29.341Z,36.92
2022-12-11T14:16:57.299Z,32.25
2022-12-11T14:19:25.384Z,32.10
2022-12-11T14:22:01.084Z,35.75
2022-12-11T14:24:30.462Z,30.85
2022-12-11T14:26:58.956Z,29.40
2022-12-11T14:29:32.298Z,29.20
2022-12-11T14:32:06.411Z,30.73
2022-12-11T14:34:44.366Z,30.73
2022-12-11T14:37:15.932Z,31.42
2022-12-11T14:40:07.398Z,31.90
2022-12-11T14:42:41.007Z,34.60
2022-12-11T14:45:24.395Z,30.58
2022-12-11T14:47:54.452Z,32.25
2022-12-11T14:50:31.147Z,29.52
2022-12-11T14:53:04.240Z,30.02
2022-12-11T14:55:37.556Z,30.17
2022-12-11T14:58:14.965Z,26.98
2022-12-11T15:00:42.973Z,26.70
2022-12-11T15:03:16.415Z,30.40
2022-12-11T15:05:54.570Z,28.60
2022-12-11T15:08:36.971Z,30.17
2022-12-11T15:11:11.103Z,30.02
2022-12-11T15:13:55.674Z,24.13
2022-12-11T15:16:26.860Z,27.33
2022-12-11T15:18:56.132Z,30.63
2022-12-11T15:21:33.933Z,24.90
2022-12-11T15:24:05.397Z,27.20
2022-12-11T15:26:46.392Z,28.33
2022-12-11T15:29:46.718Z,26.55
2022-12-11T15:32:20.309Z,25.00
2022-12-11T15:34:56.849Z,22.60
2022-12-11T15:37:33.768Z,22.67
2022-12-11T15:40:03.330Z,26.23
2022-12-11T15:42:43.786Z,27.67
2022-12-11T15:45:20.809Z,24.15
2022-12-11T15:47:50.709Z,26.75
2022-12-11T15:50:24.736Z,31.20
2022-12-11T15:52:54.978Z,24.35
2022-12-11T15:55:25.737Z,26.73
2022-12-11T15:57:53.881Z,25.77
2022-12-11T16:00:24.004Z,25.58
2022-12-11T16:02:52.188Z,23.88
2022-12-11T16:05:22.899Z,26.48
2022-12-11T16:07:52.366Z,24.17
2022-12-11T16:10:21.803Z,29.60
2022-12-11T16:12:50.209Z,29.25
2022-12-11T16:15:23.635Z,32.95
2022-12-11T16:18:07.648Z,34.83
2022-12-11T16:20:37.349Z,32.15
2022-12-11T16:23:05.956Z,32.80
2022-12-11T16:25:33.977Z,36.33
2022-12-11T16:28:02.644Z,32.20
2022-12-11T16:30:31.079Z,34.75
2022-12-11T16:32:59.069Z,37.15
2022-12-11T16:35:26.793Z,36.00
2022-12-11T16:37:55.407Z,30.20
2022-12-11T16:40:24.202Z,30.80
2022-12-11T16:42:52.936Z,29.08
2022-12-11T16:45:23.637Z,28.38
2022-12-11T16:47:52.492Z,28.08
2022-12-11T16:50:20.909Z,31.10
2022-12-11T16:52:49.295Z,29.98
2022-12-11T16:55:21.081Z,32.88
2022-12-11T16:57:49.304Z,34.20
2022-12-11T17:00:17.485Z,33.47
2022-12-11T17:02:45.506Z,32.50
2022-12-11T17:05:13.985Z,31.08
2022-12-11T17:07:43.304Z,30.92
2022-12-11T17:10:11.128Z,31.92
2022-12-11T17:12:39.207Z,32.70
2022-12-11T17:15:07.442Z,32.63
2022-12-11T17:17:35.415Z,35.28
2022-12-11T17:20:03.434Z,36.88
2022-12-11T17:22:31.555Z,30.63
2022-12-11T17:24:59.364Z,35.10
2022-12-11T17:27:27.579Z,29.17
2022-12-11T17:29:55.274Z,29.80
2022-12-11T17:32:23.179Z,27.10
2022-12-11T17:34:51.032Z,33.80
2022-12-11T17:37:20.168Z,30.98
2022-12-11T17:39:47.927Z,34.53
2022-12-11T17:42:15.898Z,30.90
2022-12-11T17:44:45.458Z,31.55
2022-12-11T17:47:13.969Z,33.35
2022-12-11T17:49:41.799Z,33.42
2022-12-11T17:52:09.808Z,31.55
2022-12-11T17:54:39.238Z,34.88
2022-12-11T17:57:07.588Z,34.17
2022-12-11T17:59:35.372Z,36.00
2022-12-11T18:02:03.528Z,39.13
2022-12-11T18:04:31.395Z,38.45
2022-12-11T18:06:59.393Z,38.88
2022-12-11T18:09:27.166Z,36.08
2022-12-11T18:11:55.096Z,36.58
2022-12-11T18:14:23.276Z,36.30
2022-12-11T18:16:52.623Z,35.22
2022-12-11T18:19:20.363Z,30.70
2022-12-11T18:21:48.969Z,37.10
2022-12-11T18:24:16.684Z,37.75
2022-12-11T18:26:44.894Z,35.83
2022-12-11T18:29:12.696Z,35.75
2022-12-11T18:31:42.787Z,30.52
2022-12-11T18:34:11.546Z,39.42
2022-12-11T18:36:40.791Z,30.63
2022-12-11T18:39:08.730Z,33.90
2022-12-11T18:41:36.723Z,37.85
2022-12-11T18:44:09.517Z,37.88
2022-12-11T18:49:07.436Z,42.00
2022-12-11T18:51:35.987Z,38.22
2022-12-11T18:54:03.954Z,41.88
2022-12-11T18:56:32.208Z,35.85
2022-12-11T18:58:59.932Z,35.10
2022-12-11T19:01:29.651Z,38.42
2022-12-11T19:04:04.202Z,38.95
2022-12-11T19:06:35.612Z,40.28
2022-12-11T19:09:05.552Z,39.03
2022-12-11T19:11:35.333Z,37.67
2022-12-11T19:14:05.858Z,36.45
2022-12-11T19:16:40.287Z,36.00
2022-12-11T19:19:20.064Z,38.05
2022-12-11T19:21:49.669Z,42.42
2022-12-11T19:24:20.875Z,38.05
2022-12-11T19:26:49.435Z,36.75
2022-12-11T19:29:21.943Z,38.50
2022-12-11T19:31:49.961Z,33.58
2022-12-11T19:34:18.594Z,38.53
2022-12-11T19:36:46.655Z,38.95
2022-12-11T19:39:14.663Z,35.90
2022-12-11T19:41:43.349Z,35.13
2022-12-11T19:44:11.582Z,33.72
2022-12-11T19:46:39.942Z,36.30
2022-12-11T19:49:07.849Z,39.53
2022-12-11T19:51:38.816Z,37.67
2022-12-11T19:54:12.726Z,40.10
2022-12-11T19:56:40.934Z,38.85
2022-12-11T19:59:14.053Z,43.95
2022-12-11T20:01:42.588Z,43.65
2022-12-11T20:04:13.630Z,40.65
2022-12-11T20:06:44.198Z,39.42
2022-12-11T20:09:13.319Z,40.92
2022-12-11T20:11:43.982Z,38.10
2022-12-11T20:14:19.972Z,33.45
2022-12-11T20:19:36.359Z,35.35
2022-12-11T20:22:04.632Z,34.90
2022-12-11T20:24:32.635Z,36.25
2022-12-11T20:27:00.643Z,41.47
2022-12-11T20:29:29.120Z,37.28
2022-12-11T20:31:59.733Z,38.90
2022-12-11T20:34:28.005Z,39.13
2022-12-11T20:36:56.408Z,36.80
2022-12-11T20:39:24.425Z,42.30
2022-12-11T20:41:52.492Z,41.17
2022-12-11T20:44:20.488Z,36.83
2022-12-11T20:46:48.742Z,35.08
2022-12-11T20:49:16.586Z,36.92
2022-12-11T20:51:44.534Z,45.70
2022-12-11T20:54:13.163Z,40.42
2022-12-11T20:56:41.120Z,42.22
2022-12-11T20:59:09.969Z,38.47
2022-12-11T21:01:37.993Z,38.25
2022-12-11T21:04:05.914Z,36.70
2022-12-11T21:06:36.673Z,35.30
2022-12-11T21:09:15.763Z,40.65
2022-12-11T21:11:44.058Z,36.97
2022-12-11T21:14:11.745Z,37.88
2022-12-11T21:16:40.479Z,36.08
2022-12-11T21:19:12.452Z,34.33
2022-12-11T21:21:45.423Z,38.85
2022-12-11T21:24:16.202Z,36.67
2022-12-11T21:26:44.837Z,49.55
2022-12-11T21:29:13.321Z,35.97
2022-12-11T21:31:42.991Z,41.00
2022-12-11T21:34:11.289Z,42.47
2022-12-11T21:36:39.521Z,35.75
2022-12-11T21:39:08.388Z,34.47
2022-12-11T21:41:36.617Z,36.15
2022-12-11T21:46:52.723Z,38.72
2022-12-11T21:49:20.826Z,38.45
2022-12-11T21:51:50.135Z,33.95
2022-12-11T21:54:19.535Z,31.15
2022-12-11T21:56:47.958Z,33.65
2022-12-11T21:59:17.153Z,30.02
2022-12-11T22:01:46.274Z,35.97
2022-12-11T22:04:15.164Z,31.77
2022-12-11T22:06:43.702Z,31.88
2022-12-11T22:09:13.203Z,30.80
2022-12-11T22:11:43.031Z,27.33
2022-12-11T22:14:13.963Z,29.60
2022-12-11T22:16:43.085Z,27.75
2022-12-11T22:19:11.049Z,25.30
2022-12-11T22:21:39.313Z,30.02
2022-12-11T22:24:07.431Z,26.13
2022-12-11T22:26:35.512Z,35.80
2022-12-11T22:29:03.957Z,38.38
2022-12-11T22:31:32.662Z,31.75
2022-12-11T22:34:00.649Z,31.20
2022-12-11T22:36:28.927Z,33.75
2022-12-11T22:38:56.660Z,27.48
2022-12-11T22:41:31.277Z,26.88
2022-12-11T22:43:59.440Z,34.00
2022-12-11T22:46:29.731Z,32.92
2022-12-11T22:48:58.764Z,28.92
2022-12-11T22:51:26.999Z,30.27
2022-12-11T22:53:54.831Z,30.67
2022-12-11T22:56:22.897Z,26.95
2022-12-11T22:58:51.156Z,28.35
2022-12-11T23:01:23.412Z,27.67
2022-12-11T23:03:52.027Z,28.05
2022-12-11T23:06:22.642Z,29.92
2022-12-11T23:08:51.027Z,28.02
2022-12-11T23:11:24.314Z,30.23
2022-12-11T23:13:52.873Z,29.60
2022-12-11T23:16:22.118Z,28.60
2022-12-11T23:18:50.199Z,28.40
2022-12-11T23:21:18.543Z,28.83
2022-12-11T23:23:46.837Z,31.55
2022-12-11T23:26:16.614Z,32.28
2022-12-11T23:28:44.684Z,30.33
2022-12-11T23:31:13.456Z,28.38
2022-12-11T23:33:41.557Z,32.58
2022-12-11T23:36:10.597Z,32.28
2022-12-11T23:38:39.164Z,32.33
2022-12-11T23:41:09.713Z,35.03
2022-12-11T23:43:38.402Z,36.00
2022-12-11T23:46:10.440Z,30.80
2022-12-11T23:48:38.346Z,30.38
2022-12-11T23:51:07.060Z,32.97
2022-12-11T23:53:35.244Z,32.47
2022-12-11T23:56:15.738Z,32.72
2022-12-11T23:58:43.614Z,35.85
